createdAt,value
2022-10-20T00:01:00.722Z,4.03
2022-10-20T00:03:28.596Z,3.97
2022-10-20T00:05:55.665Z,3.50
2022-10-20T00:08:22.201Z,3.70
2022-10-20T00:10:56.418Z,3.90
2022-10-20T00:13:23.763Z,3.50
2022-10-20T00:15:51.814Z,3.83
2022-10-20T00:18:19.164Z,4.20
2022-10-20T00:20:45.911Z,3.43
2022-10-20T00:23:12.485Z,3.80
2022-10-20T00:25:39.974Z,4.17
2022-10-20T00:28:06.633Z,4.30
2022-10-20T00:30:36.016Z,3.67
2022-10-20T00:33:04.503Z,4.20
2022-10-20T00:35:32.067Z,3.87
2022-10-20T00:37:58.572Z,3.90
2022-10-20T00:40:25.384Z,3.70
2022-10-20T00:42:51.819Z,3.50
2022-10-20T00:45:20.437Z,3.77
2022-10-20T00:47:57.601Z,4.20
2022-10-20T00:50:27.343Z,3.47
2022-10-20T00:52:55.731Z,4.20
2022-10-20T00:55:26.793Z,3.63
2022-10-20T00:57:55.758Z,3.97
2022-10-20T01:00:22.281Z,4.83
2022-10-20T01:02:51.019Z,4.07
2022-10-20T01:05:18.013Z,4.50
2022-10-20T01:07:44.527Z,4.23
2022-10-20T01:10:12.141Z,4.97
2022-10-20T01:13:06.662Z,4.17
2022-10-20T01:16:21.306Z,4.23
2022-10-20T01:18:58.782Z,4.10
2022-10-20T01:21:55.755Z,4.73
2022-10-20T01:27:25.529Z,4.73
2022-10-20T01:30:03.945Z,4.73
2022-10-20T01:32:49.269Z,5.10
2022-10-20T01:35:34.700Z,4.60
2022-10-20T01:38:04.832Z,4.97
2022-10-20T01:40:44.762Z,3.83
2022-10-20T01:43:14.426Z,4.37
2022-10-20T01:45:45.181Z,4.10
2022-10-20T01:48:13.806Z,4.87
2022-10-20T01:50:41.615Z,4.77
2022-10-20T01:53:10.354Z,4.37
2022-10-20T01:55:38.494Z,5.13
2022-10-20T01:58:20.860Z,5.30
2022-10-20T02:00:49.967Z,4.90
2022-10-20T02:03:22.101Z,4.73
2022-10-20T02:06:07.496Z,4.30
2022-10-20T02:08:44.023Z,4.23
2022-10-20T02:11:34.669Z,4.67
2022-10-20T02:14:02.872Z,4.73
2022-10-20T02:16:52.135Z,4.60
2022-10-20T02:19:23.497Z,4.63
2022-10-20T02:21:52.655Z,4.87
2022-10-20T02:24:22.869Z,4.77
2022-10-20T02:26:51.638Z,5.43
2022-10-20T02:29:22.580Z,4.33
2022-10-20T02:31:49.132Z,4.50
2022-10-20T02:34:15.946Z,4.53
2022-10-20T02:36:43.692Z,5.27
2022-10-20T02:39:10.343Z,4.57
2022-10-20T02:41:37.317Z,4.70
2022-10-20T02:44:04.304Z,5.67
2022-10-20T02:46:30.769Z,5.13
2022-10-20T02:48:57.123Z,5.80
2022-10-20T02:51:23.624Z,5.27
2022-10-20T02:53:50.019Z,5.57
2022-10-20T02:56:16.607Z,5.70
2022-10-20T02:58:42.986Z,5.57
2022-10-20T03:01:09.427Z,5.07
2022-10-20T03:03:35.866Z,5.37
2022-10-20T03:06:16.304Z,5.97
2022-10-20T03:08:43.255Z,5.77
2022-10-20T03:11:09.807Z,5.47
2022-10-20T03:13:36.433Z,6.30
2022-10-20T03:16:03.047Z,6.33
2022-10-20T03:18:29.414Z,6.43
2022-10-20T03:20:55.811Z,6.40
2022-10-20T03:23:22.488Z,6.07
2022-10-20T03:25:48.886Z,6.37
2022-10-20T03:28:15.655Z,6.10
2022-10-20T03:30:42.503Z,6.93
2022-10-20T03:33:08.920Z,7.27
2022-10-20T03:35:35.335Z,6.53
2022-10-20T03:38:01.768Z,6.40
2022-10-20T03:40:28.121Z,6.77
2022-10-20T03:42:54.521Z,7.17
2022-10-20T03:45:20.949Z,6.63
2022-10-20T03:47:47.474Z,7.20
2022-10-20T03:50:13.834Z,7.37
2022-10-20T03:52:40.188Z,7.70
2022-10-20T03:55:06.922Z,7.77
2022-10-20T03:57:33.558Z,7.20
2022-10-20T04:00:00.099Z,7.40
2022-10-20T04:02:33.749Z,7.00
2022-10-20T04:05:01.150Z,8.07
2022-10-20T04:07:29.706Z,7.40
2022-10-20T04:09:56.416Z,7.83
2022-10-20T04:12:23.663Z,7.90
2022-10-20T04:14:50.630Z,7.43
2022-10-20T04:17:17.080Z,7.93
2022-10-20T04:19:43.468Z,8.73
2022-10-20T04:22:09.877Z,9.13
2022-10-20T04:24:36.254Z,9.43
2022-10-20T04:27:03.032Z,8.83
2022-10-20T04:29:29.575Z,10.67
2022-10-20T04:31:55.999Z,9.00
2022-10-20T04:34:22.732Z,9.60
2022-10-20T04:36:50.405Z,9.23
2022-10-20T04:39:16.837Z,9.67
2022-10-20T04:41:43.476Z,9.50
2022-10-20T04:44:09.955Z,10.67
2022-10-20T04:46:36.369Z,10.30
2022-10-20T04:49:02.826Z,9.87
2022-10-20T04:51:29.233Z,10.57
2022-10-20T04:53:55.747Z,10.10
2022-10-20T04:56:23.366Z,9.17
2022-10-20T04:58:50.810Z,11.23
2022-10-20T05:01:18.569Z,10.80
2022-10-20T05:03:45.112Z,10.90
2022-10-20T05:06:18.067Z,11.63
2022-10-20T05:08:46.888Z,10.10
2022-10-20T05:11:14.182Z,10.53
2022-10-20T05:13:40.599Z,10.20
2022-10-20T05:16:07.540Z,10.83
2022-10-20T05:18:34.714Z,10.80
2022-10-20T05:21:16.639Z,11.23
2022-10-20T05:23:44.333Z,11.30
2022-10-20T05:26:16.082Z,10.30
2022-10-20T05:28:47.640Z,10.77
2022-10-20T05:31:15.874Z,10.00
2022-10-20T05:33:47.273Z,10.00
2022-10-20T05:36:19.348Z,11.13
2022-10-20T05:38:48.685Z,10.87
2022-10-20T05:41:17.713Z,10.57
2022-10-20T05:43:49.088Z,11.77
2022-10-20T05:46:15.578Z,10.83
2022-10-20T05:48:43.201Z,10.20
2022-10-20T05:51:14.901Z,10.97
2022-10-20T05:53:42.360Z,10.73
2022-10-20T05:56:11.396Z,10.30
2022-10-20T05:58:37.822Z,10.30
2022-10-20T06:01:25.398Z,11.27
2022-10-20T06:03:54.950Z,10.83
2022-10-20T06:06:23.930Z,11.50
2022-10-20T06:08:51.006Z,10.53
2022-10-20T06:11:18.540Z,10.83
2022-10-20T06:13:47.201Z,9.93
2022-10-20T06:16:22.431Z,11.67
2022-10-20T06:18:48.962Z,10.67
2022-10-20T06:21:20.814Z,11.03
2022-10-20T06:23:47.317Z,11.47
2022-10-20T06:26:19.338Z,10.63
2022-10-20T06:28:49.829Z,11.97
2022-10-20T06:31:18.997Z,10.93
2022-10-20T06:33:46.461Z,10.33
2022-10-20T06:36:13.671Z,10.53
2022-10-20T06:38:40.761Z,11.13
2022-10-20T06:41:16.850Z,11.60
2022-10-20T06:43:44.765Z,11.27
2022-10-20T06:46:17.008Z,10.53
2022-10-20T06:48:43.630Z,11.13
2022-10-20T06:51:12.621Z,11.63
2022-10-20T06:53:42.753Z,10.40
2022-10-20T06:56:15.140Z,12.60
2022-10-20T06:58:43.387Z,10.27
2022-10-20T07:01:18.785Z,10.77
2022-10-20T07:03:47.253Z,11.23
2022-10-20T07:06:16.349Z,11.00
2022-10-20T07:08:43.188Z,11.13
2022-10-20T07:11:12.622Z,10.63
2022-10-20T07:13:40.393Z,11.33
2022-10-20T07:16:08.737Z,10.83
2022-10-20T07:18:36.105Z,10.63
2022-10-20T07:21:05.541Z,11.93
2022-10-20T07:23:33.011Z,11.67
2022-10-20T07:26:12.411Z,10.40
2022-10-20T07:28:44.236Z,11.60
2022-10-20T07:31:13.901Z,11.27
2022-10-20T07:33:40.735Z,11.37
2022-10-20T07:36:35.845Z,11.03
2022-10-20T07:39:05.187Z,11.67
2022-10-20T07:41:32.445Z,11.73
2022-10-20T07:43:59.143Z,12.67
2022-10-20T07:46:26.316Z,11.83
2022-10-20T07:48:52.805Z,12.87
2022-10-20T07:51:22.206Z,12.57
2022-10-20T07:53:49.508Z,13.07
2022-10-20T07:56:16.477Z,11.60
2022-10-20T07:58:43.567Z,12.87
2022-10-20T08:01:10.779Z,12.90
2022-10-20T08:03:37.311Z,12.47
2022-10-20T08:06:04.576Z,11.23
2022-10-20T08:08:31.153Z,11.63
2022-10-20T08:11:00.401Z,12.20
2022-10-20T08:13:28.091Z,11.93
2022-10-20T08:16:01.990Z,12.03
2022-10-20T08:18:29.652Z,10.60
2022-10-20T08:21:06.488Z,12.00
2022-10-20T08:23:33.058Z,13.47
2022-10-20T08:25:59.437Z,11.57
2022-10-20T08:28:27.023Z,11.97
2022-10-20T08:30:53.669Z,11.40
2022-10-20T08:33:20.079Z,12.70
2022-10-20T08:35:46.420Z,12.70
2022-10-20T08:38:12.797Z,11.57
2022-10-20T08:40:42.881Z,12.97
2022-10-20T08:43:18.841Z,13.40
2022-10-20T08:45:46.044Z,13.53
2022-10-20T08:48:21.949Z,13.73
2022-10-20T08:50:51.485Z,13.23
2022-10-20T08:53:21.342Z,13.80
2022-10-20T08:55:47.989Z,14.33
2022-10-20T08:58:19.696Z,13.63
2022-10-20T09:00:47.382Z,13.53
2022-10-20T09:03:23.979Z,14.13
2022-10-20T09:06:08.720Z,14.97
2022-10-20T09:08:37.474Z,13.07
2022-10-20T09:11:08.032Z,14.10
2022-10-20T09:13:36.582Z,14.97
2022-10-20T09:16:22.040Z,14.23
2022-10-20T09:19:01.420Z,15.23
2022-10-20T09:21:28.963Z,14.40
2022-10-20T09:24:01.375Z,13.60
2022-10-20T09:26:58.283Z,15.33
2022-10-20T09:29:37.763Z,13.87
2022-10-20T09:32:44.833Z,13.40
2022-10-20T09:35:24.139Z,14.73
2022-10-20T09:37:58.342Z,13.77
2022-10-20T09:40:26.605Z,15.20
2022-10-20T09:42:56.904Z,15.00
2022-10-20T09:45:28.790Z,15.07
2022-10-20T09:48:27.159Z,15.43
2022-10-20T09:50:56.880Z,15.03
2022-10-20T09:53:33.422Z,15.93
2022-10-20T09:56:00.090Z,15.20
2022-10-20T09:58:30.327Z,15.03
2022-10-20T10:01:01.718Z,16.37
2022-10-20T10:03:29.098Z,16.20
2022-10-20T10:06:00.143Z,14.17
2022-10-20T10:08:40.601Z,15.93
2022-10-20T10:11:19.194Z,17.53
2022-10-20T10:13:48.711Z,16.93
2022-10-20T10:16:18.781Z,16.37
2022-10-20T10:18:54.804Z,17.17
2022-10-20T10:21:21.949Z,15.73
2022-10-20T10:24:01.344Z,17.40
2022-10-20T10:26:44.275Z,17.23
2022-10-20T10:29:27.169Z,16.90
2022-10-20T10:31:59.850Z,17.77
2022-10-20T10:34:35.264Z,18.27
2022-10-20T10:37:01.759Z,18.23
2022-10-20T10:39:36.048Z,17.80
2022-10-20T10:42:24.569Z,17.97
2022-10-20T10:45:03.084Z,16.10
2022-10-20T10:47:56.904Z,18.07
2022-10-20T10:50:48.299Z,18.73
2022-10-20T10:53:32.375Z,17.33
2022-10-20T10:56:26.455Z,17.87
2022-10-20T10:59:09.109Z,19.53
2022-10-20T11:01:58.687Z,20.23
2022-10-20T11:04:59.931Z,18.67
2022-10-20T11:07:26.326Z,20.50
2022-10-20T11:10:25.121Z,19.23
2022-10-20T11:12:55.485Z,21.23
2022-10-20T11:15:52.441Z,21.50
2022-10-20T11:18:49.217Z,20.90
2022-10-20T11:21:26.925Z,18.57
2022-10-20T11:24:24.980Z,18.27
2022-10-20T11:26:57.839Z,19.07
2022-10-20T11:29:29.585Z,18.17
2022-10-20T11:32:14.293Z,16.93
2022-10-20T11:34:59.570Z,19.87
2022-10-20T11:37:29.315Z,17.53
2022-10-20T11:40:11.502Z,19.17
2022-10-20T11:42:59.583Z,17.73
2022-10-20T11:45:49.016Z,20.13
2022-10-20T11:48:36.245Z,18.20
2022-10-20T11:51:30.156Z,17.60
2022-10-20T11:54:02.635Z,18.27
2022-10-20T11:56:41.142Z,20.03
2022-10-20T11:59:28.254Z,18.13
2022-10-20T12:02:43.135Z,17.83
2022-10-20T12:05:31.186Z,17.73
2022-10-20T12:08:34.720Z,16.33
2022-10-20T12:11:19.462Z,17.23
2022-10-20T12:14:03.571Z,18.53
2022-10-20T12:16:52.026Z,16.73
2022-10-20T12:19:22.487Z,18.63
2022-10-20T12:22:05.001Z,17.27
2022-10-20T12:24:40.425Z,19.97
2022-10-20T12:27:09.746Z,18.23
2022-10-20T12:29:36.054Z,20.37
2022-10-20T12:32:21.427Z,17.83
2022-10-20T12:34:49.887Z,18.33
2022-10-20T12:37:33.080Z,19.53
2022-10-20T12:40:20.728Z,20.80
2022-10-20T12:42:51.457Z,16.37
2022-10-20T12:45:50.491Z,20.27
2022-10-20T12:48:24.042Z,21.20
2022-10-20T12:50:51.978Z,18.33
2022-10-20T12:53:24.523Z,20.00
2022-10-20T12:56:07.790Z,20.27
2022-10-20T12:58:39.311Z,20.47
2022-10-20T13:01:12.095Z,18.93
2022-10-20T13:03:47.297Z,18.33
2022-10-20T13:06:33.915Z,18.13
2022-10-20T13:09:04.673Z,20.23
2022-10-20T13:11:41.036Z,18.47
2022-10-20T13:14:13.317Z,19.50
2022-10-20T13:16:58.236Z,21.30
2022-10-20T13:19:36.685Z,18.37
2022-10-20T13:22:39.457Z,20.50
2022-10-20T13:25:14.214Z,19.23
2022-10-20T13:27:42.286Z,22.50
2022-10-20T13:30:21.766Z,22.37
2022-10-20T13:33:33.767Z,17.47
2022-10-20T13:36:12.917Z,20.27
2022-10-20T13:39:02.099Z,21.20
2022-10-20T13:41:28.535Z,22.30
2022-10-20T13:43:57.748Z,21.07
2022-10-20T13:46:37.974Z,20.53
2022-10-20T13:49:29.180Z,22.80
2022-10-20T13:52:01.011Z,21.97
2022-10-20T13:54:32.451Z,20.63
2022-10-20T13:56:59.689Z,19.57
2022-10-20T13:59:28.813Z,21.43
2022-10-20T14:02:08.861Z,19.13
2022-10-20T14:04:37.597Z,21.87
2022-10-20T14:07:08.576Z,21.03
2022-10-20T14:09:34.999Z,21.87
2022-10-20T14:12:11.825Z,20.30
2022-10-20T14:14:44.387Z,19.30
2022-10-20T14:17:19.234Z,21.40
2022-10-20T14:19:46.865Z,19.80
2022-10-20T14:22:23.759Z,19.13
2022-10-20T14:24:57.659Z,21.20
2022-10-20T14:27:30.780Z,22.73
2022-10-20T14:29:58.696Z,22.33
2022-10-20T14:32:29.643Z,19.90
2022-10-20T14:34:59.099Z,20.67
2022-10-20T14:38:14.689Z,22.30
2022-10-20T14:40:41.356Z,20.70
2022-10-20T14:43:20.354Z,22.50
2022-10-20T14:46:03.823Z,21.83
2022-10-20T14:48:37.554Z,23.13
2022-10-20T14:51:30.487Z,19.20
2022-10-20T14:54:22.730Z,23.90
2022-10-20T14:56:57.822Z,22.33
2022-10-20T14:59:30.006Z,22.27
2022-10-20T15:02:09.222Z,22.90
2022-10-20T15:04:43.470Z,20.60
2022-10-20T15:07:18.095Z,22.53
2022-10-20T15:09:47.917Z,20.17
2022-10-20T15:12:22.525Z,19.60
2022-10-20T15:14:51.969Z,21.23
2022-10-20T15:17:32.562Z,22.53
2022-10-20T15:19:59.030Z,20.07
2022-10-20T15:22:25.475Z,22.27
2022-10-20T15:24:51.839Z,22.97
2022-10-20T15:27:18.205Z,24.00
2022-10-20T15:29:50.792Z,23.60
2022-10-20T15:32:18.295Z,23.40
2022-10-20T15:34:44.955Z,23.47
2022-10-20T15:37:11.319Z,22.60
2022-10-20T15:39:37.832Z,22.57
2022-10-20T15:42:10.885Z,23.23
2022-10-20T15:44:37.960Z,24.03
2022-10-20T15:47:04.371Z,19.53
2022-10-20T15:49:30.854Z,22.03
2022-10-20T15:51:57.534Z,20.03
2022-10-20T15:54:23.923Z,21.93
2022-10-20T15:56:50.462Z,23.20
2022-10-20T15:59:16.834Z,24.03
2022-10-20T16:01:43.257Z,23.67
2022-10-20T16:04:17.861Z,23.93
2022-10-20T16:06:44.489Z,22.83
2022-10-20T16:09:13.560Z,23.00
2022-10-20T16:11:42.387Z,23.53
2022-10-20T16:14:08.881Z,21.50
2022-10-20T16:16:35.330Z,23.23
2022-10-20T16:19:02.986Z,22.17
2022-10-20T16:21:29.427Z,22.70
2022-10-20T16:23:56.035Z,22.17
2022-10-20T16:26:22.663Z,23.07
2022-10-20T16:28:49.298Z,22.53
2022-10-20T16:31:16.857Z,24.23
2022-10-20T16:33:44.078Z,22.80
2022-10-20T16:36:13.440Z,21.93
2022-10-20T16:38:40.489Z,23.97
2022-10-20T16:41:13.615Z,20.60
2022-10-20T16:43:44.318Z,22.10
2022-10-20T16:46:12.347Z,23.77
2022-10-20T16:48:41.430Z,22.00
2022-10-20T16:51:12.022Z,22.53
2022-10-20T16:53:39.035Z,22.93
2022-10-20T16:56:06.434Z,23.20
2022-10-20T16:58:33.047Z,23.57
2022-10-20T17:01:08.750Z,22.27
2022-10-20T17:06:15.153Z,25.43
2022-10-20T17:08:42.107Z,24.10
2022-10-20T17:11:11.641Z,23.10
2022-10-20T17:13:39.274Z,24.50
2022-10-20T17:16:08.305Z,23.70
2022-10-20T17:18:35.389Z,24.00
2022-10-20T17:21:02.239Z,24.73
2022-10-20T17:23:37.371Z,24.53
2022-10-20T17:26:08.137Z,23.93
2022-10-20T17:28:36.873Z,26.27
2022-10-20T17:31:06.564Z,24.33
2022-10-20T17:33:33.265Z,24.50
2022-10-20T17:36:00.731Z,25.00
2022-10-20T17:38:28.539Z,24.10
2022-10-20T17:40:57.876Z,23.87
2022-10-20T17:43:24.269Z,24.00
2022-10-20T17:46:01.919Z,25.60
2022-10-20T17:48:28.374Z,25.80
2022-10-20T17:51:10.127Z,25.03
2022-10-20T17:53:39.999Z,26.03
2022-10-20T17:56:09.886Z,24.33
2022-10-20T17:58:36.505Z,25.13
2022-10-20T18:01:24.079Z,27.20
2022-10-20T18:04:05.549Z,24.33
2022-10-20T18:06:34.797Z,25.57
2022-10-20T18:09:05.259Z,25.57
2022-10-20T18:11:33.261Z,23.60
2022-10-20T18:14:00.691Z,25.90
2022-10-20T18:16:29.701Z,26.53
2022-10-20T18:18:59.904Z,26.63
2022-10-20T18:21:27.739Z,26.30
2022-10-20T18:23:56.452Z,26.67
2022-10-20T18:26:23.342Z,26.10
2022-10-20T18:28:50.543Z,27.17
2022-10-20T18:31:22.647Z,26.73
2022-10-20T18:33:51.578Z,25.40
2022-10-20T18:36:19.310Z,26.43
2022-10-20T18:38:46.906Z,27.43
2022-10-20T18:41:14.651Z,26.73
2022-10-20T18:43:41.781Z,26.20
2022-10-20T18:46:10.178Z,27.07
2022-10-20T18:48:37.959Z,23.67
2022-10-20T18:51:05.991Z,25.07
2022-10-20T18:53:33.423Z,25.93
2022-10-20T18:56:01.582Z,27.37
2022-10-20T18:58:30.000Z,25.93
2022-10-20T19:01:13.961Z,24.97
2022-10-20T19:03:41.691Z,27.13
2022-10-20T19:06:12.257Z,26.00
2022-10-20T19:08:39.871Z,25.83
2022-10-20T19:11:08.794Z,25.60
2022-10-20T19:13:35.476Z,24.27
2022-10-20T19:16:08.009Z,25.53
2022-10-20T19:18:35.545Z,26.00
2022-10-20T19:21:04.703Z,25.90
2022-10-20T19:23:32.939Z,24.93
2022-10-20T19:26:09.606Z,24.53
2022-10-20T19:28:40.059Z,23.20
2022-10-20T19:31:29.851Z,22.93
2022-10-20T19:34:03.798Z,23.30
2022-10-20T19:36:30.437Z,24.93
2022-10-20T19:38:56.938Z,24.07
2022-10-20T19:41:23.932Z,25.17
2022-10-20T19:43:50.578Z,26.00
2022-10-20T19:46:18.597Z,26.67
2022-10-20T19:48:45.981Z,26.80
2022-10-20T19:51:14.137Z,24.43
2022-10-20T19:53:40.975Z,25.47
2022-10-20T19:56:08.241Z,25.07
2022-10-20T19:58:36.302Z,23.60
2022-10-20T20:01:04.138Z,24.57
2022-10-20T20:03:30.794Z,25.27
2022-10-20T20:06:06.013Z,24.87
2022-10-20T20:08:35.236Z,24.83
2022-10-20T20:11:04.102Z,25.40
2022-10-20T20:13:31.720Z,24.23
2022-10-20T20:15:58.105Z,24.13
2022-10-20T20:18:24.548Z,24.47
2022-10-20T20:20:50.898Z,22.90
2022-10-20T20:23:22.465Z,24.73
2022-10-20T20:25:52.324Z,23.83
2022-10-20T20:28:18.763Z,24.87
2022-10-20T20:30:45.191Z,26.20
2022-10-20T20:33:11.615Z,24.90
2022-10-20T20:35:37.992Z,25.17
2022-10-20T20:38:04.355Z,24.73
2022-10-20T20:40:30.870Z,24.40
2022-10-20T20:42:57.264Z,23.93
2022-10-20T20:45:23.736Z,24.80
2022-10-20T20:47:50.121Z,23.97
2022-10-20T20:50:16.682Z,24.23
2022-10-20T20:52:43.218Z,24.33
2022-10-20T20:55:09.725Z,26.23
2022-10-20T20:57:36.330Z,26.53
2022-10-20T21:00:03.877Z,25.03
2022-10-20T21:02:30.357Z,25.80
2022-10-20T21:04:56.769Z,25.03
2022-10-20T21:07:23.387Z,25.73
2022-10-20T21:09:49.849Z,22.90
2022-10-20T21:12:16.250Z,20.57
2022-10-20T21:14:42.707Z,23.80
2022-10-20T21:17:09.071Z,22.27
2022-10-20T21:19:35.863Z,22.13
2022-10-20T21:22:02.251Z,22.30
2022-10-20T21:24:28.783Z,23.90
2022-10-20T21:26:55.253Z,21.37
2022-10-20T21:29:21.637Z,22.73
2022-10-20T21:31:48.200Z,23.43
2022-10-20T21:34:14.756Z,23.47
2022-10-20T21:36:41.294Z,22.00
2022-10-20T21:39:11.741Z,22.23
2022-10-20T21:41:38.389Z,24.10
2022-10-20T21:44:06.864Z,22.37
2022-10-20T21:46:43.778Z,25.37
2022-10-20T21:49:14.418Z,22.80
2022-10-20T21:51:44.043Z,23.57
2022-10-20T21:54:16.326Z,23.67
2022-10-20T21:56:44.654Z,23.27
2022-10-20T21:59:19.667Z,23.90
2022-10-20T22:01:47.551Z,23.63
2022-10-20T22:04:14.604Z,22.73
2022-10-20T22:06:41.433Z,23.67
2022-10-20T22:09:08.550Z,23.53
2022-10-20T22:11:38.946Z,23.13
2022-10-20T22:14:06.193Z,24.27
2022-10-20T22:16:35.222Z,24.07
2022-10-20T22:19:09.202Z,22.83
2022-10-20T22:21:38.108Z,24.33
2022-10-20T22:24:04.918Z,22.83
2022-10-20T22:26:32.127Z,22.23
2022-10-20T22:28:59.531Z,22.70
2022-10-20T22:31:26.823Z,22.83
2022-10-20T22:33:55.791Z,20.80
2022-10-20T22:36:22.998Z,22.57
2022-10-20T22:38:49.410Z,21.97
2022-10-20T22:41:15.871Z,21.10
2022-10-20T22:43:42.264Z,21.70
2022-10-20T22:46:09.205Z,20.33
2022-10-20T22:48:36.022Z,21.23
2022-10-20T22:51:07.539Z,20.97
2022-10-20T22:53:34.653Z,21.80
2022-10-20T22:56:13.043Z,20.30
2022-10-20T22:58:39.992Z,21.77
2022-10-20T23:01:10.032Z,20.27
2022-10-20T23:03:37.135Z,21.90
2022-10-20T23:06:08.406Z,20.00
2022-10-20T23:08:41.194Z,21.40
2022-10-20T23:11:07.681Z,20.60
2022-10-20T23:13:34.132Z,21.07
2022-10-20T23:16:00.733Z,20.30
2022-10-20T23:18:27.535Z,21.90
2022-10-20T23:20:57.325Z,20.37
2022-10-20T23:23:24.801Z,19.93
2022-10-20T23:25:51.668Z,19.77
2022-10-20T23:28:18.966Z,19.80
2022-10-20T23:30:45.750Z,19.73
2022-10-20T23:33:12.503Z,19.60
2022-10-20T23:35:39.835Z,18.37
2022-10-20T23:38:08.547Z,19.50
2022-10-20T23:40:35.473Z,19.53
2022-10-20T23:43:01.850Z,19.07
2022-10-20T23:45:28.262Z,19.53
2022-10-20T23:47:54.640Z,19.10
2022-10-20T23:50:23.358Z,18.90
2022-10-20T23:52:49.828Z,18.70
2022-10-20T23:55:16.221Z,18.33
2022-10-20T23:57:42.643Z,18.77
